createdAt,value
2019-01-19T00:00:21.734Z,11.12
2019-01-19T00:02:53.855Z,11.15
2019-01-19T00:05:37.546Z,9.20
2019-01-19T00:08:12.480Z,10.53
2019-01-19T00:11:00.963Z,10.60
2019-01-19T00:13:44.808Z,10.53
2019-01-19T00:16:19.822Z,11.43
2019-01-19T00:18:54.803Z,10.90
2019-01-19T00:21:41.441Z,10.18
2019-01-19T00:24:22.459Z,11.43
2019-01-19T00:27:09.248Z,11.30
2019-01-19T00:29:59.117Z,10.60
2019-01-19T00:32:59.601Z,10.50
2019-01-19T00:35:37.677Z,8.80
2019-01-19T00:38:34.947Z,11.20
2019-01-19T00:41:22.200Z,9.18
2019-01-19T00:43:54.325Z,13.00
2019-01-19T00:46:32.213Z,9.25
2019-01-19T00:49:04.309Z,9.33
2019-01-19T00:51:41.866Z,9.88
2019-01-19T00:54:19.186Z,8.38
2019-01-19T00:56:57.118Z,10.75
2019-01-19T00:59:28.558Z,12.45
2019-01-19T01:02:06.257Z,9.50
2019-01-19T01:04:43.261Z,11.78
2019-01-19T01:07:30.080Z,10.28
2019-01-19T01:10:02.177Z,9.23
2019-01-19T01:12:46.103Z,9.78
2019-01-19T01:15:32.925Z,9.58
2019-01-19T01:18:07.753Z,10.65
2019-01-19T01:20:45.650Z,9.80
2019-01-19T01:23:20.386Z,10.20
2019-01-19T01:25:58.068Z,9.38
2019-01-19T01:28:45.184Z,9.25
2019-01-19T01:31:23.179Z,10.95
2019-01-19T01:34:01.093Z,10.13
2019-01-19T01:36:47.473Z,10.78
2019-01-19T01:39:22.231Z,9.63
2019-01-19T01:42:26.732Z,11.80
2019-01-19T01:45:01.616Z,9.13
2019-01-19T01:47:45.270Z,10.00
2019-01-19T01:50:32.286Z,9.98
2019-01-19T01:53:21.738Z,9.40
2019-01-19T01:55:50.604Z,12.98
2019-01-19T01:58:22.721Z,8.43
2019-01-19T02:00:54.843Z,9.40
2019-01-19T02:03:32.683Z,10.50
2019-01-19T02:06:16.405Z,8.68
2019-01-19T02:09:21.750Z,10.08
2019-01-19T02:12:14.006Z,12.07
2019-01-19T02:14:57.820Z,8.15
2019-01-19T02:17:41.798Z,10.75
2019-01-19T02:20:16.848Z,9.43
2019-01-19T02:22:54.656Z,9.98
2019-01-19T02:25:29.629Z,14.10
2019-01-19T02:28:17.057Z,11.15
2019-01-19T02:30:55.019Z,13.00
2019-01-19T02:33:27.063Z,11.12
2019-01-19T02:36:10.666Z,9.48
2019-01-19T02:38:57.848Z,10.30
2019-01-19T02:41:35.405Z,9.73
2019-01-19T02:44:13.530Z,9.25
2019-01-19T02:46:48.396Z,9.03
2019-01-19T02:49:23.322Z,12.35
2019-01-19T02:51:58.213Z,9.75
2019-01-19T02:54:51.049Z,9.90
2019-01-19T02:57:31.866Z,11.40
2019-01-19T03:00:38.496Z,9.78
2019-01-19T03:03:19.473Z,8.95
2019-01-19T03:05:56.104Z,8.93
2019-01-19T03:08:33.799Z,9.83
2019-01-19T03:11:23.761Z,8.98
2019-01-19T03:14:12.091Z,10.28
2019-01-19T03:17:02.128Z,10.38
2019-01-19T03:19:39.769Z,10.78
2019-01-19T03:22:29.421Z,10.95
2019-01-19T03:25:03.993Z,10.38
2019-01-19T03:27:38.812Z,10.88
2019-01-19T03:30:27.325Z,10.32
2019-01-19T03:32:59.848Z,10.50
2019-01-19T03:35:31.956Z,9.35
2019-01-19T03:38:19.083Z,9.48
2019-01-19T03:40:51.116Z,8.45
2019-01-19T03:43:28.754Z,10.68
2019-01-19T03:46:15.515Z,9.15
2019-01-19T03:48:52.736Z,9.35
2019-01-19T03:51:30.598Z,9.58
2019-01-19T03:54:05.082Z,9.73
2019-01-19T03:56:42.474Z,9.35
2019-01-19T03:59:32.594Z,9.63
2019-01-19T04:02:19.560Z,9.98
2019-01-19T04:05:06.562Z,10.43
2019-01-19T04:07:44.358Z,9.30
2019-01-19T04:10:22.457Z,9.28
2019-01-19T04:13:03.426Z,9.45
2019-01-19T04:15:41.260Z,9.25
2019-01-19T04:18:34.162Z,10.35
2019-01-19T04:21:08.962Z,10.03
2019-01-19T04:23:39.270Z,11.35
2019-01-19T04:26:08.496Z,9.23
2019-01-19T04:28:37.649Z,9.68
2019-01-19T04:31:06.438Z,8.80
2019-01-19T04:33:35.222Z,10.28
2019-01-19T04:36:04.014Z,10.43
2019-01-19T04:38:34.560Z,11.05
2019-01-19T04:41:03.458Z,12.55
2019-01-19T04:43:32.308Z,10.10
2019-01-19T04:46:01.122Z,11.18
2019-01-19T04:48:30.171Z,10.43
2019-01-19T04:50:59.013Z,9.55
2019-01-19T04:53:27.784Z,10.78
2019-01-19T04:55:56.582Z,13.22
2019-01-19T04:58:25.443Z,11.15
2019-01-19T05:00:54.217Z,11.65
2019-01-19T05:03:22.989Z,13.10
2019-01-19T05:05:51.779Z,13.05
2019-01-19T05:08:20.569Z,10.93
2019-01-19T05:10:49.419Z,10.30
2019-01-19T05:13:18.290Z,10.98
2019-01-19T05:15:47.136Z,9.75
2019-01-19T05:18:15.912Z,10.95
2019-01-19T05:20:44.791Z,11.75
2019-01-19T05:23:13.576Z,9.73
2019-01-19T05:25:42.348Z,11.80
2019-01-19T05:28:11.137Z,12.20
2019-01-19T05:30:40.331Z,12.47
2019-01-19T05:33:09.192Z,13.45
2019-01-19T05:35:38.025Z,9.88
2019-01-19T05:38:06.846Z,15.55
2019-01-19T05:40:35.697Z,10.60
2019-01-19T05:43:04.482Z,17.92
2019-01-19T05:45:33.342Z,15.45
2019-01-19T05:48:02.110Z,9.90
2019-01-19T05:50:30.934Z,18.52
2019-01-19T05:52:59.813Z,14.47
2019-01-19T05:55:28.679Z,23.40
2019-01-19T05:57:57.548Z,14.83
2019-01-19T06:00:28.138Z,16.17
2019-01-19T06:02:56.940Z,12.85
2019-01-19T06:05:25.709Z,14.68
2019-01-19T06:07:54.541Z,17.85
2019-01-19T06:10:23.376Z,19.20
2019-01-19T06:12:52.286Z,12.93
2019-01-19T06:15:21.192Z,14.68
2019-01-19T06:17:50.017Z,14.28
2019-01-19T06:20:18.943Z,19.37
2019-01-19T06:22:47.725Z,20.15
2019-01-19T06:25:16.570Z,17.25
2019-01-19T06:27:45.513Z,15.32
2019-01-19T06:30:19.441Z,18.12
2019-01-19T06:32:48.298Z,15.63
2019-01-19T06:35:17.875Z,19.25
2019-01-19T06:37:46.712Z,11.20
2019-01-19T06:40:17.263Z,18.67
2019-01-19T06:42:46.095Z,24.57
2019-01-19T06:45:17.427Z,22.50
2019-01-19T06:47:46.227Z,20.62
2019-01-19T06:50:16.603Z,17.12
2019-01-19T06:52:45.425Z,28.98
2019-01-19T06:55:17.130Z,22.22
2019-01-19T06:57:45.972Z,25.70
2019-01-19T07:00:16.889Z,18.23
2019-01-19T07:02:45.823Z,24.05
2019-01-19T07:05:15.038Z,17.10
2019-01-19T07:07:43.812Z,22.35
2019-01-19T07:10:15.449Z,30.88
2019-01-19T07:12:44.238Z,23.02
2019-01-19T07:15:13.945Z,17.80
2019-01-19T07:17:42.842Z,18.55
2019-01-19T07:20:14.162Z,17.35
2019-01-19T07:22:42.954Z,18.70
2019-01-19T07:25:11.822Z,20.10
2019-01-19T07:27:40.684Z,17.25
2019-01-19T07:30:12.976Z,17.90
2019-01-19T07:32:41.841Z,17.00
2019-01-19T07:35:10.705Z,17.12
2019-01-19T07:37:39.522Z,23.25
2019-01-19T07:40:10.956Z,21.37
2019-01-19T07:42:41.289Z,17.05
2019-01-19T07:45:12.054Z,28.23
2019-01-19T07:47:41.784Z,19.40
2019-01-19T07:50:15.868Z,18.73
2019-01-19T07:52:44.710Z,18.15
2019-01-19T07:55:16.358Z,17.27
2019-01-19T07:57:45.249Z,21.02
2019-01-19T08:00:31.958Z,21.00
2019-01-19T08:03:00.739Z,18.40
2019-01-19T08:05:29.550Z,15.45
2019-01-19T08:07:58.429Z,22.10
2019-01-19T08:10:27.239Z,24.92
2019-01-19T08:12:56.012Z,23.38
2019-01-19T08:15:27.069Z,30.95
2019-01-19T08:17:55.878Z,28.40
2019-01-19T08:20:24.722Z,30.23
2019-01-19T08:22:53.617Z,24.15
2019-01-19T08:25:22.518Z,20.92
2019-01-19T08:27:51.289Z,21.05
2019-01-19T08:30:25.610Z,20.85
2019-01-19T08:32:54.453Z,22.67
2019-01-19T08:35:23.355Z,20.88
2019-01-19T08:37:52.198Z,24.70
2019-01-19T08:40:30.276Z,22.07
2019-01-19T08:43:06.446Z,26.05
2019-01-19T08:45:35.294Z,28.15
2019-01-19T08:48:04.391Z,18.10
2019-01-19T08:50:34.810Z,23.32
2019-01-19T08:53:03.604Z,20.92
2019-01-19T08:55:32.400Z,22.07
2019-01-19T08:58:01.222Z,26.35
2019-01-19T09:00:30.012Z,25.52
2019-01-19T09:02:58.784Z,18.73
2019-01-19T09:05:27.565Z,25.90
2019-01-19T09:07:56.360Z,25.43
2019-01-19T09:10:25.183Z,21.82
2019-01-19T09:12:54.657Z,25.08
2019-01-19T09:15:25.276Z,23.67
2019-01-19T09:17:54.184Z,27.42
2019-01-19T09:20:23.006Z,36.35
2019-01-19T09:22:53.816Z,21.73
2019-01-19T09:25:22.709Z,34.38
2019-01-19T09:27:51.571Z,22.90
2019-01-19T09:30:24.532Z,23.32
2019-01-19T09:32:53.548Z,21.93
2019-01-19T09:35:22.348Z,25.50
2019-01-19T09:37:51.255Z,21.80
2019-01-19T09:40:20.049Z,23.55
2019-01-19T09:42:48.833Z,18.65
2019-01-19T09:45:21.180Z,21.12
2019-01-19T09:47:49.956Z,22.75
2019-01-19T09:50:20.378Z,21.23
2019-01-19T09:52:49.164Z,25.35
2019-01-19T09:55:17.957Z,17.20
2019-01-19T09:57:46.922Z,21.40
2019-01-19T10:00:21.656Z,21.35
2019-01-19T10:02:50.493Z,21.70
2019-01-19T10:05:22.172Z,21.30
2019-01-19T10:07:51.142Z,23.55
2019-01-19T10:10:19.962Z,25.40
2019-01-19T10:12:48.871Z,22.82
2019-01-19T10:15:18.997Z,20.60
2019-01-19T10:17:47.873Z,17.92
2019-01-19T10:20:25.251Z,25.45
2019-01-19T10:22:54.156Z,29.92
2019-01-19T10:25:23.035Z,31.93
2019-01-19T10:27:51.818Z,31.45
2019-01-19T10:30:23.053Z,25.32
2019-01-19T10:32:51.843Z,23.02
2019-01-19T10:35:20.679Z,27.17
2019-01-19T10:37:56.332Z,28.75
2019-01-19T10:40:20.128Z,27.98
2019-01-19T10:42:48.989Z,20.27
2019-01-19T10:45:28.395Z,26.52
2019-01-19T10:47:57.436Z,20.00
2019-01-19T10:50:26.257Z,19.98
2019-01-19T10:52:55.109Z,24.82
2019-01-19T10:55:24.711Z,20.15
2019-01-19T10:57:53.486Z,21.30
2019-01-19T11:00:35.533Z,18.90
2019-01-19T11:03:05.388Z,24.75
2019-01-19T11:05:34.241Z,20.43
2019-01-19T11:08:04.272Z,19.60
2019-01-19T11:10:34.577Z,17.27
2019-01-19T11:13:03.421Z,17.23
2019-01-19T11:15:32.270Z,16.93
2019-01-19T11:18:01.074Z,18.07
2019-01-19T11:20:31.282Z,20.70
2019-01-19T11:23:01.122Z,28.12
2019-01-19T11:25:30.534Z,30.50
2019-01-19T11:27:59.354Z,27.70
2019-01-19T11:30:32.796Z,29.32
2019-01-19T11:33:01.577Z,24.12
2019-01-19T11:35:30.384Z,27.80
2019-01-19T11:37:59.274Z,29.25
2019-01-19T11:40:31.160Z,25.68
2019-01-19T11:42:59.954Z,26.93
2019-01-19T11:45:28.783Z,25.52
2019-01-19T11:47:57.615Z,18.87
2019-01-19T11:50:26.421Z,23.73
2019-01-19T11:52:55.327Z,20.48
2019-01-19T11:55:24.217Z,20.60
2019-01-19T11:57:55.615Z,20.95
2019-01-19T12:00:38.298Z,30.23
2019-01-19T12:03:07.449Z,34.58
2019-01-19T12:05:37.598Z,50.40
2019-01-19T12:08:07.465Z,46.88
2019-01-19T12:10:36.246Z,31.90
2019-01-19T12:13:05.047Z,40.92
2019-01-19T12:15:33.953Z,48.17
2019-01-19T12:18:02.818Z,62.43
2019-01-19T12:20:39.919Z,44.40
2019-01-19T12:23:09.544Z,49.55
2019-01-19T12:25:38.366Z,47.40
2019-01-19T12:28:07.221Z,51.73
2019-01-19T12:30:36.097Z,47.95
2019-01-19T12:33:05.530Z,47.20
2019-01-19T12:35:34.341Z,35.52
2019-01-19T12:38:03.541Z,45.05
2019-01-19T12:40:32.323Z,40.33
2019-01-19T12:43:04.424Z,40.92
2019-01-19T12:45:39.232Z,41.37
2019-01-19T12:48:08.080Z,42.17
2019-01-19T12:50:36.871Z,41.40
2019-01-19T12:53:05.678Z,39.35
2019-01-19T12:55:36.097Z,39.75
2019-01-19T12:58:06.223Z,36.73
2019-01-19T13:00:35.011Z,40.05
2019-01-19T13:03:04.280Z,42.83
2019-01-19T13:05:51.180Z,38.17
2019-01-19T13:08:26.187Z,34.35
2019-01-19T13:11:06.880Z,34.80
2019-01-19T13:13:38.326Z,30.82
2019-01-19T13:16:45.395Z,29.12
2019-01-19T13:19:26.427Z,28.73
2019-01-19T13:22:04.352Z,29.32
2019-01-19T13:24:54.279Z,27.35
2019-01-19T13:27:29.696Z,29.87
2019-01-19T13:30:13.583Z,28.92
2019-01-19T13:32:51.715Z,27.95
2019-01-19T13:35:56.775Z,29.18
2019-01-19T13:38:45.331Z,30.12
2019-01-19T13:41:35.074Z,27.22
2019-01-19T13:44:09.832Z,27.37
2019-01-19T13:46:50.437Z,26.23
2019-01-19T13:49:28.396Z,26.75
2019-01-19T13:52:06.067Z,27.02
2019-01-19T13:54:43.974Z,22.50
2019-01-19T13:57:22.183Z,23.38
2019-01-19T13:59:57.170Z,24.02
2019-01-19T14:03:02.735Z,25.48
2019-01-19T14:05:42.950Z,23.52
2019-01-19T14:08:20.786Z,25.50
2019-01-19T14:11:04.205Z,21.55
2019-01-19T14:13:42.024Z,25.43
2019-01-19T14:16:25.947Z,22.32
2019-01-19T14:19:19.790Z,23.67
2019-01-19T14:22:12.932Z,22.37
2019-01-19T14:25:11.329Z,20.97
2019-01-19T14:27:55.548Z,18.67
2019-01-19T14:30:35.984Z,18.70
2019-01-19T14:33:10.703Z,22.05
2019-01-19T14:35:58.978Z,16.02
2019-01-19T14:38:39.332Z,18.48
2019-01-19T14:41:17.028Z,16.80
2019-01-19T14:43:49.178Z,16.85
2019-01-19T14:49:50.784Z,16.20
2019-01-19T14:52:39.760Z,15.88
2019-01-19T14:55:33.886Z,15.83
2019-01-19T14:58:20.037Z,16.17
2019-01-19T15:01:08.402Z,16.50
2019-01-19T15:03:40.563Z,14.58
2019-01-19T15:06:18.567Z,14.55
2019-01-19T15:09:03.823Z,16.80
2019-01-19T15:11:35.561Z,20.43
2019-01-19T15:14:23.059Z,14.93
2019-01-19T15:17:14.577Z,17.25
2019-01-19T15:19:58.728Z,15.25
2019-01-19T15:22:33.574Z,19.35
2019-01-19T15:25:14.543Z,15.20
2019-01-19T15:27:49.210Z,11.85
2019-01-19T15:30:39.260Z,15.03
2019-01-19T15:33:26.485Z,13.00
2019-01-19T15:36:22.293Z,13.08
2019-01-19T15:38:54.494Z,12.85
2019-01-19T15:41:29.412Z,11.83
2019-01-19T15:44:22.222Z,14.47
2019-01-19T15:47:02.592Z,10.63
2019-01-19T15:49:57.010Z,11.78
2019-01-19T15:52:31.774Z,11.33
2019-01-19T15:55:15.630Z,13.80
2019-01-19T15:57:47.674Z,13.72
2019-01-19T16:00:22.158Z,10.15
2019-01-19T16:02:57.375Z,13.53
2019-01-19T16:06:03.819Z,11.50
2019-01-19T16:08:35.983Z,14.18
2019-01-19T16:11:19.477Z,13.25
2019-01-19T16:14:15.846Z,13.98
2019-01-19T16:17:07.066Z,12.30
2019-01-19T16:19:58.683Z,14.87
2019-01-19T16:22:54.141Z,12.73
2019-01-19T16:25:35.104Z,11.75
2019-01-19T16:28:22.060Z,11.88
2019-01-19T16:31:12.205Z,13.62
2019-01-19T16:33:59.269Z,13.03
2019-01-19T16:36:34.225Z,15.48
2019-01-19T16:39:09.158Z,13.18
2019-01-19T16:41:56.007Z,13.80
2019-01-19T16:44:28.085Z,12.13
2019-01-19T16:47:02.695Z,15.32
2019-01-19T16:49:43.696Z,14.03
2019-01-19T16:52:21.333Z,12.55
2019-01-19T16:54:56.327Z,11.70
2019-01-19T16:57:34.565Z,12.50
2019-01-19T17:00:38.235Z,12.75
2019-01-19T17:03:11.809Z,13.90
2019-01-19T17:05:43.923Z,15.08
2019-01-19T17:08:28.049Z,19.00
2019-01-19T17:11:09.049Z,16.67
2019-01-19T17:13:57.325Z,17.98
2019-01-19T17:16:34.805Z,23.62
2019-01-19T17:19:09.795Z,31.42
2019-01-19T17:21:58.382Z,29.48
2019-01-19T17:24:33.259Z,35.45
2019-01-19T17:27:21.866Z,24.75
2019-01-19T17:30:10.508Z,26.57
2019-01-19T17:32:45.067Z,35.88
2019-01-19T17:35:28.556Z,23.47
2019-01-19T17:38:00.692Z,30.15
2019-01-19T17:40:41.594Z,19.80
2019-01-19T17:43:22.053Z,23.80
2019-01-19T17:45:56.904Z,25.35
2019-01-19T17:48:31.763Z,23.10
2019-01-19T17:51:31.192Z,26.70
2019-01-19T17:54:18.197Z,28.73
2019-01-19T17:57:15.748Z,28.85
2019-01-19T17:59:53.506Z,29.40
2019-01-19T18:02:41.693Z,31.40
2019-01-19T18:05:16.580Z,32.93
2019-01-19T18:07:51.080Z,33.78
2019-01-19T18:10:34.613Z,31.75
2019-01-19T18:13:06.673Z,33.02
2019-01-19T18:15:59.358Z,32.85
2019-01-19T18:18:40.157Z,35.92
2019-01-19T18:21:21.155Z,35.40
2019-01-19T18:24:01.979Z,35.73
2019-01-19T18:26:36.581Z,33.42
2019-01-19T18:29:20.326Z,38.98
2019-01-19T18:31:55.133Z,41.65
2019-01-19T18:34:30.087Z,31.52
2019-01-19T18:37:14.052Z,34.58
2019-01-19T18:39:46.211Z,33.20
2019-01-19T18:42:27.561Z,37.23
2019-01-19T18:45:08.390Z,32.45
2019-01-19T18:47:43.156Z,30.50
2019-01-19T18:50:33.014Z,36.75
2019-01-19T18:53:13.846Z,36.90
2019-01-19T18:55:51.538Z,36.60
2019-01-19T18:58:35.129Z,33.92
2019-01-19T19:01:25.039Z,31.97
2019-01-19T19:04:13.811Z,28.20
2019-01-19T19:06:51.651Z,28.07
2019-01-19T19:09:40.309Z,29.27
2019-01-19T19:12:21.356Z,34.08
2019-01-19T19:15:09.970Z,26.80
2019-01-19T19:17:56.945Z,33.98
2019-01-19T19:20:37.803Z,29.82
2019-01-19T19:23:12.493Z,35.48
2019-01-19T19:26:11.927Z,32.80
2019-01-19T19:28:55.805Z,40.43
2019-01-19T19:31:30.871Z,43.40
2019-01-19T19:34:05.623Z,32.85
2019-01-19T19:36:49.519Z,29.45
2019-01-19T19:39:39.443Z,34.00
2019-01-19T19:42:35.530Z,33.65
2019-01-19T19:45:16.396Z,25.52
2019-01-19T19:48:16.746Z,32.42
2019-01-19T19:50:48.908Z,31.70
2019-01-19T19:53:17.710Z,37.83
2019-01-19T19:55:45.999Z,41.55
2019-01-19T19:58:14.805Z,36.80
2019-01-19T20:00:43.687Z,29.12
2019-01-19T20:03:12.583Z,29.52
2019-01-19T20:05:42.776Z,31.70
2019-01-19T20:08:11.583Z,30.72
2019-01-19T20:10:40.380Z,32.48
2019-01-19T20:13:09.215Z,28.27
2019-01-19T20:15:38.060Z,26.95
2019-01-19T20:18:07.416Z,31.87
2019-01-19T20:20:36.253Z,29.15
2019-01-19T20:23:05.188Z,29.80
2019-01-19T20:25:35.119Z,28.23
2019-01-19T20:28:03.945Z,30.77
2019-01-19T20:30:32.782Z,26.35
2019-01-19T20:33:01.644Z,26.55
2019-01-19T20:35:30.431Z,27.05
2019-01-19T20:37:59.221Z,25.40
2019-01-19T20:40:28.029Z,23.80
2019-01-19T20:42:56.884Z,24.85
2019-01-19T20:45:25.753Z,23.87
2019-01-19T20:47:54.619Z,29.55
2019-01-19T20:50:23.420Z,20.68
2019-01-19T20:52:52.272Z,25.45
2019-01-19T20:55:21.515Z,21.42
2019-01-19T20:57:50.302Z,18.32
2019-01-19T21:00:19.841Z,22.30
2019-01-19T21:02:48.723Z,21.80
2019-01-19T21:05:17.593Z,21.20
2019-01-19T21:07:46.385Z,23.70
2019-01-19T21:10:15.234Z,23.52
2019-01-19T21:12:44.031Z,26.55
2019-01-19T21:15:15.414Z,24.80
2019-01-19T21:17:44.489Z,25.12
2019-01-19T21:20:15.079Z,25.62
2019-01-19T21:22:43.952Z,22.00
2019-01-19T21:25:13.414Z,22.30
2019-01-19T21:27:42.198Z,26.93
2019-01-19T21:30:13.947Z,21.68
2019-01-19T21:32:42.736Z,23.98
2019-01-19T21:35:11.853Z,22.40
2019-01-19T21:37:40.732Z,24.15
2019-01-19T21:40:12.316Z,22.95
2019-01-19T21:42:41.227Z,26.35
2019-01-19T21:45:13.337Z,26.85
2019-01-19T21:47:42.181Z,25.40
2019-01-19T21:50:12.166Z,24.47
2019-01-19T21:52:40.969Z,23.75
2019-01-19T21:55:10.239Z,25.43
2019-01-19T21:57:39.099Z,25.77
2019-01-19T22:00:19.235Z,27.15
2019-01-19T22:02:48.086Z,24.55
2019-01-19T22:05:16.934Z,25.30
2019-01-19T22:07:45.737Z,25.02
2019-01-19T22:10:19.786Z,24.23
2019-01-19T22:12:48.733Z,22.52
2019-01-19T22:15:18.748Z,24.18
2019-01-19T22:17:47.594Z,23.85
2019-01-19T22:20:17.901Z,24.07
2019-01-19T22:22:46.686Z,24.02
2019-01-19T22:25:15.618Z,24.85
2019-01-19T22:27:48.117Z,25.25
2019-01-19T22:30:19.427Z,23.65
2019-01-19T22:32:50.123Z,27.27
2019-01-19T22:35:18.932Z,21.52
2019-01-19T22:37:47.797Z,24.37
2019-01-19T22:40:18.229Z,23.77
2019-01-19T22:42:47.754Z,24.43
2019-01-19T22:45:17.476Z,28.80
2019-01-19T22:47:46.259Z,25.77
2019-01-19T22:50:17.521Z,28.10
2019-01-19T22:52:46.434Z,26.07
2019-01-19T22:55:15.302Z,25.60
2019-01-19T22:57:44.087Z,28.27
2019-01-19T23:00:57.451Z,30.40
2019-01-19T23:03:27.432Z,25.10
2019-01-19T23:05:56.236Z,25.52
2019-01-19T23:08:25.168Z,28.20
2019-01-19T23:11:00.931Z,27.10
2019-01-19T23:13:24.422Z,25.82
2019-01-19T23:15:53.215Z,25.92
2019-01-19T23:18:21.993Z,26.37
2019-01-19T23:20:50.862Z,26.07
2019-01-19T23:23:19.755Z,29.98
2019-01-19T23:25:48.585Z,30.70
2019-01-19T23:28:17.446Z,26.27
2019-01-19T23:30:46.305Z,29.67
2019-01-19T23:33:15.101Z,28.52
2019-01-19T23:35:43.934Z,26.73
2019-01-19T23:38:12.697Z,27.32
2019-01-19T23:40:41.502Z,26.62
2019-01-19T23:43:10.379Z,28.20
2019-01-19T23:45:39.731Z,26.45
2019-01-19T23:48:08.521Z,29.95
2019-01-19T23:50:37.414Z,27.60
2019-01-19T23:53:06.207Z,28.65
2019-01-19T23:55:35.189Z,28.05
2019-01-19T23:58:04.083Z,26.65
